Time;durP1;ratioP1;P1;durP2;ratioP2;P2;SDS_P1;SDS_P2;PMS_P1;PMS_P2;Temp;Humidity;BMP_temperature;BMP_pressure;BME280_temperature;BME280_humidity;BME280_pressure;Samples;Min_cycle;Max_cycle;Signal;HPM_P1;HPM_P2
2022/09/07 00:44:17;;;;;;;;;;;;;;;;;;;;;
2022/09/07 03:35:17;;;;;;;9.43;6.80;;;;;;;;;;4421775;32;20053;-74
2022/09/07 03:47:38;;;;;;;;;;;;;;;;;;;;;
2022/09/07 04:29:01;;;;;;;6.78;6.07;;;;;;;;;;4343500;32;20061;-74
2022/09/07 05:28:45;;;;;;;27.27;21.45;;;;;;;;;;4285165;33;20468;-71
2022/09/07 05:38:11;;;;;;;27.65;20.45;;;;;;;;;;4287797;33;20032;-72
2022/09/07 05:41:09;;;;;;;24.48;20.30;;;;;;;;;;4326474;33;20123;-71
2022/09/07 05:46:37;;;;;;;27.00;19.70;;;;;;;;;;4359540;32;20189;-72
2022/09/07 05:49:05;;;;;;;34.55;20.67;;;;;;;;;;4387949;32;20030;-72
2022/09/07 05:51:30;;;;;;;29.77;21.10;;;;;;;;;;4422285;32;20061;-72
2022/09/07 05:54:43;;;;;;;36.85;27.62;;;;;;;;;;4409123;32;20026;-72
2022/09/07 06:18:31;;;;;;;20.52;16.70;;;;;;;;;;4374718;32;20050;-70
2022/09/07 06:24:15;;;;;;;22.05;17.70;;;;;;;;;;4406622;32;20406;-70
2022/09/07 06:27:18;;;;;;;19.92;14.73;;;;;;;;;;4409259;32;20026;-70
2022/09/07 06:39:02;;;;;;;23.52;18.95;;;;;;;;;;4406249;32;20063;-70
2022/09/07 06:48:04;;;;;;;22.95;19.75;;;;;;;;;;4331249;33;20098;-70
2022/09/07 07:15:40;;;;;;;26.30;20.05;;;;;;;;;;4316881;33;20062;-70
2022/09/07 07:18:24;;;;;;;23.02;19.48;;;;;;;;;;4347534;33;20031;-70
2022/09/07 07:39:59;;;;;;;19.60;17.52;;;;;;;;;;4305976;33;20071;-70
2022/09/07 07:42:24;;;;;;;19.75;17.65;;;;;;;;;;4332465;33;20055;-70
2022/09/07 07:44:49;;;;;;;20.27;17.85;;;;;;;;;;4348615;32;20092;-72
2022/09/07 07:47:15;;;;;;;18.52;16.62;;;;;;;;;;4403172;32;20065;-70
2022/09/07 07:49:46;;;;;;;21.33;18.40;;;;;;;;;;4404838;32;20384;-71
2022/09/07 07:52:11;;;;;;;21.40;19.12;;;;;;;;;;4392178;32;20073;-70
2022/09/07 07:54:37;;;;;;;23.92;19.35;;;;;;;;;;4405180;32;20467;-70
2022/09/07 07:57:08;;;;;;;23.77;21.40;;;;;;;;;;4405482;32;20026;-70
2022/09/07 07:59:34;;;;;;;23.15;20.17;;;;;;;;;;4405768;32;20030;-70
2022/09/07 08:02:03;;;;;;;23.92;21.67;;;;;;;;;;4406529;32;20027;-70
2022/09/07 08:04:31;;;;;;;23.12;20.77;;;;;;;;;;4405799;32;20030;-71
2022/09/07 08:06:56;;;;;;;26.05;21.25;;;;;;;;;;4405725;32;20049;-71
2022/09/07 08:09:22;;;;;;;23.10;20.70;;;;;;;;;;4405496;32;20038;-70
2022/09/07 08:11:47;;;;;;;24.17;20.85;;;;;;;;;;4390997;32;20479;-70
2022/09/07 08:14:16;;;;;;;25.15;21.33;;;;;;;;;;4404524;32;20316;-69
2022/09/07 08:16:42;;;;;;;23.65;21.27;;;;;;;;;;4387851;32;20065;-69
2022/09/07 08:26:01;;;;;;;;;;;;;;;;;;;;;
2022/09/07 08:28:37;;;;;;;20.27;18.02;;;;;;;;;;4343287;33;20031;-71
2022/09/07 08:31:04;;;;;;;21.55;18.30;;;;;;;;;;4343298;33;20167;-71
2022/09/07 08:33:29;;;;;;;18.20;16.37;;;;;;;;;;4387328;32;20173;-71
2022/09/07 08:35:55;;;;;;;20.88;15.27;;;;;;;;;;4420551;32;20408;-71
2022/09/07 08:38:21;;;;;;;19.48;16.25;;;;;;;;;;4406552;32;20025;-70
2022/09/07 08:40:49;;;;;;;16.42;14.68;;;;;;;;;;4421879;32;20029;-70
2022/09/07 08:43:17;;;;;;;17.00;14.93;;;;;;;;;;4420014;32;20056;-70
2022/09/07 08:45:47;;;;;;;15.30;13.70;;;;;;;;;;4420244;32;20056;-70
2022/09/07 08:48:15;;;;;;;16.37;14.25;;;;;;;;;;4420347;32;20060;-70
2022/09/07 08:51:17;;;;;;;15.90;13.43;;;;;;;;;;4420557;32;20094;-70
2022/09/07 08:53:45;;;;;;;17.42;13.93;;;;;;;;;;4358420;32;20074;-70
2022/09/07 08:56:21;;;;;;;15.80;12.52;;;;;;;;;;4408839;32;20097;-70
2022/09/07 08:58:47;;;;;;;13.23;11.82;;;;;;;;;;4420040;32;20075;-68
2022/09/07 09:01:31;;;;;;;14.32;11.55;;;;;;;;;;4420062;32;20332;-71
2022/09/07 09:03:57;;;;;;;14.75;11.55;;;;;;;;;;4421491;32;20027;-71
2022/09/07 09:06:52;;;;;;;13.35;11.60;;;;;;;;;;4420004;32;20470;-71
2022/09/07 09:09:47;;;;;;;13.20;10.55;;;;;;;;;;4406657;32;20079;-70
2022/09/07 09:12:32;;;;;;;11.23;8.73;;;;;;;;;;4421282;32;20030;-71
2022/09/07 09:15:06;;;;;;;19.05;9.88;;;;;;;;;;4419895;32;20536;-71
2022/09/07 09:17:34;;;;;;;12.35;7.75;;;;;;;;;;4419558;32;20026;-71
2022/09/07 09:19:59;;;;;;;13.80;8.25;;;;;;;;;;4408427;32;20038;-66
2022/09/07 09:22:27;;;;;;;12.83;9.17;;;;;;;;;;4406068;32;20022;-62
2022/09/07 09:24:57;;;;;;;14.93;8.85;;;;;;;;;;4393588;32;20122;-69
2022/09/07 09:27:22;;;;;;;13.65;7.57;;;;;;;;;;4408377;32;20090;-70
2022/09/07 09:29:50;;;;;;;12.30;5.87;;;;;;;;;;4402442;32;20077;-69
2022/09/07 09:32:34;;;;;;;12.48;6.22;;;;;;;;;;4405697;32;20034;-71
2022/09/07 09:35:01;;;;;;;8.63;4.90;;;;;;;;;;4412227;32;20061;-70
2022/09/07 09:37:34;;;;;;;10.98;5.37;;;;;;;;;;4409909;32;20386;-70
2022/09/07 09:39:59;;;;;;;8.55;6.22;;;;;;;;;;4399643;32;20027;-70
2022/09/07 09:42:28;;;;;;;12.57;6.10;;;;;;;;;;4409983;32;20022;-71
2022/09/07 09:45:00;;;;;;;13.62;6.15;;;;;;;;;;4409490;32;20052;-70
2022/09/07 09:47:29;;;;;;;8.35;4.57;;;;;;;;;;4408403;32;20075;-71
2022/09/07 09:49:56;;;;;;;12.18;4.18;;;;;;;;;;4407305;32;20097;-71
2022/09/07 09:52:22;;;;;;;10.82;4.00;;;;;;;;;;4407592;32;20408;-70
2022/09/07 09:54:49;;;;;;;9.07;3.60;;;;;;;;;;4407697;32;20058;-71
2022/09/07 09:57:16;;;;;;;8.35;2.97;;;;;;;;;;4393466;32;20014;-71
2022/09/07 09:59:41;;;;;;;9.48;3.30;;;;;;;;;;4406647;32;20046;-70
2022/09/07 10:02:26;;;;;;;8.20;2.92;;;;;;;;;;4406921;32;20052;-70
2022/09/07 10:05:17;;;;;;;10.73;3.25;;;;;;;;;;4392711;32;20026;-71
2022/09/07 10:07:49;;;;;;;13.43;3.95;;;;;;;;;;4405726;32;20074;-71
2022/09/07 10:10:18;;;;;;;7.97;2.95;;;;;;;;;;4406606;32;20095;-70
2022/09/07 10:12:44;;;;;;;8.98;3.60;;;;;;;;;;4406641;32;20404;-70
2022/09/07 10:15:35;;;;;;;13.27;3.17;;;;;;;;;;4406893;32;20019;-71
2022/09/07 10:18:03;;;;;;;9.73;3.37;;;;;;;;;;4400945;32;20045;-71
2022/09/07 10:20:35;;;;;;;7.78;3.30;;;;;;;;;;4405844;32;20038;-70
2022/09/07 10:23:02;;;;;;;9.60;3.00;;;;;;;;;;4406530;32;20026;-70
2022/09/07 10:25:30;;;;;;;13.10;3.50;;;;;;;;;;4406208;32;20041;-70
2022/09/07 10:28:08;;;;;;;10.05;3.65;;;;;;;;;;4407113;32;20044;-70
2022/09/07 10:30:39;;;;;;;10.68;3.58;;;;;;;;;;4405550;32;20045;-70
2022/09/07 10:33:09;;;;;;;8.32;3.33;;;;;;;;;;4413795;32;20423;-70
2022/09/07 10:35:48;;;;;;;8.98;3.62;;;;;;;;;;4421791;32;20438;-70
2022/09/07 10:38:18;;;;;;;9.55;3.42;;;;;;;;;;4405977;32;20027;-69
2022/09/07 10:40:46;;;;;;;9.68;3.40;;;;;;;;;;4406327;32;20062;-70
2022/09/07 10:43:23;;;;;;;8.55;3.25;;;;;;;;;;4419758;32;20086;-67
2022/09/07 10:46:08;;;;;;;8.07;2.80;;;;;;;;;;4418153;32;20030;-70
2022/09/07 10:48:52;;;;;;;7.68;2.25;;;;;;;;;;4403370;32;20091;-68
2022/09/07 10:51:24;;;;;;;10.65;2.60;;;;;;;;;;4394441;32;20046;-69
2022/09/07 10:54:19;;;;;;;6.80;2.30;;;;;;;;;;4402100;32;20143;-70
2022/09/07 10:57:11;;;;;;;7.68;2.83;;;;;;;;;;4336616;32;20494;-70
2022/09/07 10:59:46;;;;;;;7.75;2.40;;;;;;;;;;4401886;32;20022;-71
2022/09/07 11:02:14;;;;;;;9.50;2.40;;;;;;;;;;4406014;32;20030;-72
2022/09/07 11:04:53;;;;;;;12.80;3.30;;;;;;;;;;4408914;32;20439;-72
2022/09/07 11:07:18;;;;;;;11.15;3.28;;;;;;;;;;4405974;32;20344;-71
2022/09/07 11:10:06;;;;;;;6.07;2.40;;;;;;;;;;4405213;32;20049;-72
2022/09/07 11:12:34;;;;;;;9.48;2.95;;;;;;;;;;4392296;32;20386;-70
2022/09/07 11:15:11;;;;;;;9.10;3.03;;;;;;;;;;4405982;32;20347;-70
2022/09/07 11:17:56;;;;;;;8.52;2.55;;;;;;;;;;4391843;32;20027;-69
2022/09/07 11:20:28;;;;;;;8.10;2.87;;;;;;;;;;4417580;32;20069;-71
2022/09/07 11:23:07;;;;;;;10.25;2.60;;;;;;;;;;4418015;32;20039;-71
2022/09/07 11:25:40;;;;;;;9.80;2.62;;;;;;;;;;4409301;32;20377;-71
2022/09/07 11:28:19;;;;;;;7.78;2.20;;;;;;;;;;4421090;32;20301;-71
2022/09/07 11:30:48;;;;;;;10.80;3.33;;;;;;;;;;4422121;32;20023;-71
2022/09/07 11:33:25;;;;;;;7.82;2.40;;;;;;;;;;4407312;32;20048;-70
2022/09/07 11:36:06;;;;;;;9.15;2.72;;;;;;;;;;4422778;32;20359;-70
2022/09/07 11:38:33;;;;;;;7.28;2.03;;;;;;;;;;4407666;32;20399;-70
2022/09/07 11:41:21;;;;;;;8.10;2.40;;;;;;;;;;4421678;32;20026;-71
2022/09/07 11:43:57;;;;;;;6.68;2.00;;;;;;;;;;4420693;32;20416;-70
2022/09/07 11:46:31;;;;;;;6.68;2.03;;;;;;;;;;4421343;32;20043;-69
2022/09/07 11:49:37;;;;;;;9.30;2.22;;;;;;;;;;4421613;32;20022;-70
2022/09/07 11:52:07;;;;;;;10.25;2.33;;;;;;;;;;4418488;32;20022;-71
2022/09/07 11:55:05;;;;;;;7.62;2.25;;;;;;;;;;4420931;32;20022;-70
2022/09/07 11:57:30;;;;;;;7.78;2.60;;;;;;;;;;4378376;32;20387;-69
2022/09/07 12:03:43;;;;;;;6.55;2.40;;;;;;;;;;4388956;32;20076;-71
2022/09/07 12:06:20;;;;;;;9.57;2.35;;;;;;;;;;4419811;32;20109;-71
2022/09/07 12:09:04;;;;;;;7.12;2.05;;;;;;;;;;4421359;32;20029;-72
2022/09/07 12:11:32;;;;;;;8.98;2.67;;;;;;;;;;4420911;32;20041;-69
2022/09/07 12:14:36;;;;;;;10.85;2.90;;;;;;;;;;4421130;32;20072;-70
2022/09/07 12:17:22;;;;;;;7.82;2.90;;;;;;;;;;4420586;32;20390;-70
2022/09/07 12:20:02;;;;;;;5.45;2.05;;;;;;;;;;4420459;32;20165;-68
2022/09/07 12:22:27;;;;;;;6.20;2.15;;;;;;;;;;4420616;32;20061;-70
2022/09/07 12:30:58;;;;;;;9.90;2.92;;;;;;;;;;4421077;32;20037;-69
2022/09/07 12:33:28;;;;;;;9.98;3.00;;;;;;;;;;4421375;32;20087;-67
2022/09/07 12:35:56;;;;;;;6.55;2.70;;;;;;;;;;4420514;32;20030;-69
2022/09/07 12:38:30;;;;;;;7.82;2.10;;;;;;;;;;4420284;32;20030;-69
2022/09/07 12:40:58;;;;;;;7.18;2.58;;;;;;;;;;4420648;32;20030;-70
2022/09/07 12:43:26;;;;;;;8.63;2.55;;;;;;;;;;4419817;32;20026;-67
2022/09/07 12:45:53;;;;;;;8.85;2.72;;;;;;;;;;4421126;32;20022;-70
2022/09/07 12:48:32;;;;;;;6.80;2.58;;;;;;;;;;4421141;32;20030;-71
2022/09/07 12:51:19;;;;;;;7.25;2.05;;;;;;;;;;4421160;32;20081;-71
2022/09/07 12:57:26;;;;;;;8.68;2.42;;;;;;;;;;4420388;32;20044;-70
2022/09/07 12:59:55;;;;;;;6.72;2.20;;;;;;;;;;4420642;32;20122;-71
2022/09/07 13:02:36;;;;;;;7.07;1.95;;;;;;;;;;4419951;32;20034;-71
2022/09/07 13:05:13;;;;;;;11.02;2.12;;;;;;;;;;4420990;32;20079;-70
2022/09/07 14:10:51;;;;;;;6.85;2.97;;;;;;;;;;4410528;32;20056;-71
2022/09/07 14:22:34;;;;;;;8.30;2.60;;;;;;;;;;4343780;33;20374;-71
2022/09/07 14:25:06;;;;;;;9.73;2.25;;;;;;;;;;4344103;33;20035;-71
2022/09/07 14:48:46;;;;;;;6.82;2.85;;;;;;;;;;4422085;32;20051;-71
2022/09/07 14:51:29;;;;;;;10.05;2.83;;;;;;;;;;4422178;32;20037;-71
2022/09/07 15:00:24;;;;;;;10.48;3.10;;;;;;;;;;4300692;33;20092;-71
2022/09/07 15:03:19;;;;;;;8.60;2.50;;;;;;;;;;4342174;33;20039;-70
2022/09/07 15:14:57;;;;;;;10.32;3.05;;;;;;;;;;4286422;33;20141;-71
2022/09/07 15:17:24;;;;;;;8.00;2.25;;;;;;;;;;4298707;33;20106;-71
2022/09/07 15:19:49;;;;;;;9.93;2.72;;;;;;;;;;4327022;32;20035;-70
2022/09/07 15:22:15;;;;;;;7.10;2.22;;;;;;;;;;4423502;32;20072;-70
2022/09/07 15:24:41;;;;;;;9.40;2.45;;;;;;;;;;4422163;32;20026;-70
2022/09/07 15:27:23;;;;;;;9.13;2.47;;;;;;;;;;4407537;32;20317;-71
2022/09/07 15:30:16;;;;;;;9.48;2.67;;;;;;;;;;4408360;32;20057;-71
2022/09/07 15:33:02;;;;;;;12.02;2.87;;;;;;;;;;4422010;32;20041;-70
2022/09/07 15:35:33;;;;;;;13.13;3.85;;;;;;;;;;4392468;32;20042;-71
2022/09/07 15:38:05;;;;;;;8.02;2.92;;;;;;;;;;4406565;32;20119;-70
2022/09/07 15:41:01;;;;;;;11.43;2.40;;;;;;;;;;4405699;32;20034;-71
2022/09/07 15:47:06;;;;;;;14.25;2.50;;;;;;;;;;4344097;33;20028;-71
2022/09/07 15:49:53;;;;;;;8.05;2.30;;;;;;;;;;4344334;33;20058;-70
2022/09/07 15:53:06;;;;;;;7.65;3.15;;;;;;;;;;4341431;33;20035;-71
2022/09/07 15:58:35;;;;;;;10.27;2.80;;;;;;;;;;4347871;33;20050;-70
2022/09/07 16:07:20;;;;;;;5.03;2.15;;;;;;;;;;4358756;32;20077;-70
2022/09/07 16:10:27;;;;;;;7.60;2.03;;;;;;;;;;4358233;32;20083;-70
2022/09/07 16:12:58;;;;;;;9.07;2.45;;;;;;;;;;4329443;33;20040;-70
2022/09/07 16:18:53;;;;;;;8.15;2.20;;;;;;;;;;4329522;33;20045;-70
2022/09/07 16:30:54;;;;;;;15.07;2.80;;;;;;;;;;4314890;33;20047;-70
2022/09/07 16:36:37;;;;;;;;;;;;;;;;;;;;;
2022/09/07 16:54:11;;;;;;;;;;;;;;;;;;;;;
2022/09/07 16:56:37;;;;;;;10.38;3.08;;;;;;;;;;4299502;33;20029;-71
2022/09/07 16:59:03;;;;;;;7.43;2.17;;;;;;;;;;4299760;33;20051;-71
2022/09/07 17:26:32;;;;;;;11.32;2.42;;;;;;;;;;4284785;33;20160;-70
2022/09/07 17:35:17;;;;;;;7.28;2.47;;;;;;;;;;4296686;33;20069;-71
2022/09/07 17:41:08;;;;;;;7.00;2.45;;;;;;;;;;4372541;32;20114;-70
2022/09/07 17:46:41;;;;;;;7.97;2.28;;;;;;;;;;4353518;32;20072;-70
2022/09/07 17:52:44;;;;;;;8.45;2.87;;;;;;;;;;4374884;32;20069;-71
2022/09/07 17:55:12;;;;;;;9.98;2.78;;;;;;;;;;4318143;33;20035;-70
2022/09/07 17:57:38;;;;;;;13.62;2.53;;;;;;;;;;4390062;32;20412;-70
2022/09/07 18:00:07;;;;;;;9.70;4.05;;;;;;;;;;4407126;32;20030;-70
2022/09/07 18:18:01;;;;;;;9.57;2.70;;;;;;;;;;4344218;33;20054;-70
2022/09/07 18:20:39;;;;;;;10.48;2.85;;;;;;;;;;4344006;33;20377;-71
2022/09/07 18:23:06;;;;;;;12.37;2.80;;;;;;;;;;4371035;32;20355;-71
2022/09/07 18:25:34;;;;;;;13.70;2.47;;;;;;;;;;4406819;32;20081;-71
2022/09/07 18:28:06;;;;;;;10.15;3.05;;;;;;;;;;4405991;32;20195;-70
2022/09/07 18:30:36;;;;;;;13.82;3.12;;;;;;;;;;4406510;32;20371;-70
2022/09/07 18:33:03;;;;;;;8.88;2.47;;;;;;;;;;4407084;32;20359;-70
2022/09/07 18:35:28;;;;;;;12.10;3.50;;;;;;;;;;4408646;32;20049;-70
2022/09/07 18:38:04;;;;;;;;;;;;;;;;;;;;;
2022/09/07 18:40:30;;;;;;;;;;;;;;;;;;4410957;32;20419;-70
2022/09/07 18:43:06;;;;;;;10.93;3.28;;;;;;;;;;4421866;32;20319;-70
2022/09/07 18:45:32;;;;;;;13.18;3.67;;;;;;;;;;4422846;32;20125;-70
2022/09/07 18:51:35;;;;;;;;;;;;;;;;;;;;;
2022/09/07 19:01:02;;;;;;;11.55;3.40;;;;;;;;;;4407264;32;20072;-70
2022/09/07 19:06:27;;;;;;;9.80;3.53;;;;;;;;;;4345440;33;20078;-70
2022/09/07 19:31:05;;;;;;;;;;;;;;;;;;;;;
2022/09/07 20:01:10;;;;;;;8.48;4.37;;;;;;;;;;4374180;32;20054;-71
2022/09/07 20:03:54;;;;;;;10.55;3.70;;;;;;;;;;4397168;32;20093;-71
2022/09/07 20:12:53;;;;;;;9.40;4.10;;;;;;;;;;4406718;32;20371;-71
2022/09/07 20:15:18;;;;;;;9.38;3.65;;;;;;;;;;4391964;32;20111;-71
2022/09/07 20:17:46;;;;;;;15.73;5.07;;;;;;;;;;4405808;32;20363;-71
2022/09/07 20:35:48;;;;;;;;;;;;;;;;;;;;;
2022/09/07 20:38:14;;;;;;;23.00;6.60;;;;;;;;;;4339284;33;20358;-71
2022/09/07 20:40:53;;;;;;;16.48;4.60;;;;;;;;;;4375662;32;20061;-72
2022/09/07 20:49:00;;;;;;;14.35;6.43;;;;;;;;;;4413406;32;20084;-71
2022/09/07 20:54:39;;;;;;;15.48;5.45;;;;;;;;;;4419952;32;20061;-71
2022/09/07 20:57:43;;;;;;;;;;;;;;;;;;;;;
2022/09/07 21:00:09;;;;;;;12.00;6.47;;;;;;;;;;4389213;32;20072;-71
2022/09/07 21:02:50;;;;;;;;;;;;;;;;;;;;;
2022/09/07 21:44:40;;;;;;;10.60;3.87;;;;;;;;;;4355696;32;20091;-70
2022/09/07 21:47:18;;;;;;;9.32;3.42;;;;;;;;;;4345577;33;20054;-71
2022/09/07 21:58:58;;;;;;;9.25;3.58;;;;;;;;;;4406654;32;20485;-70
2022/09/07 22:01:40;;;;;;;14.75;4.12;;;;;;;;;;4406545;32;20128;-70
2022/09/07 22:04:17;;;;;;;11.00;3.70;;;;;;;;;;4407035;32;20113;-69
2022/09/07 22:06:55;;;;;;;12.30;4.45;;;;;;;;;;4407644;32;20027;-70
2022/09/07 22:25:04;;;;;;;11.90;3.47;;;;;;;;;;4329658;33;20035;-69
2022/09/07 22:27:32;;;;;;;15.68;3.42;;;;;;;;;;4330608;33;20489;-69
2022/09/07 22:33:32;;;;;;;13.82;3.97;;;;;;;;;;4331625;33;20046;-70
2022/09/07 22:36:24;;;;;;;13.48;3.40;;;;;;;;;;4330840;33;20028;-70
2022/09/07 22:38:53;;;;;;;11.52;3.83;;;;;;;;;;4392837;32;20057;-70
2022/09/07 22:41:20;;;;;;;11.77;4.00;;;;;;;;;;4391676;32;20139;-70
2022/09/07 22:43:46;;;;;;;10.23;3.65;;;;;;;;;;4399109;32;20084;-70
2022/09/07 22:46:12;;;;;;;13.65;4.20;;;;;;;;;;4419524;32;20046;-70
2022/09/07 22:48:40;;;;;;;13.35;3.67;;;;;;;;;;4422117;32;20045;-70
2022/09/07 22:51:11;;;;;;;11.48;3.60;;;;;;;;;;4422370;32;20052;-70
2022/09/07 22:53:37;;;;;;;15.30;4.28;;;;;;;;;;4422445;32;20067;-70
2022/09/07 22:56:09;;;;;;;13.85;4.28;;;;;;;;;;4422203;32;20026;-70
2022/09/07 22:58:38;;;;;;;17.77;4.28;;;;;;;;;;4414647;32;20026;-70
2022/09/07 23:01:04;;;;;;;13.05;5.18;;;;;;;;;;4407166;32;20104;-70
2022/09/07 23:03:31;;;;;;;8.55;3.53;;;;;;;;;;4421792;32;20042;-69
2022/09/07 23:06:05;;;;;;;13.55;4.45;;;;;;;;;;4422000;32;20030;-70
2022/09/07 23:08:36;;;;;;;15.73;4.82;;;;;;;;;;4422821;32;20022;-69
2022/09/07 23:11:11;;;;;;;12.98;4.37;;;;;;;;;;4422543;32;20399;-70
2022/09/07 23:13:46;;;;;;;21.15;4.97;;;;;;;;;;4415082;32;20033;-69
2022/09/07 23:22:47;;;;;;;15.07;5.40;;;;;;;;;;4374651;32;20037;-70
2022/09/07 23:25:13;;;;;;;13.68;4.78;;;;;;;;;;4374135;32;20061;-70
2022/09/07 23:27:38;;;;;;;17.65;5.35;;;;;;;;;;4373914;32;20077;-70
2022/09/07 23:30:05;;;;;;;16.87;5.60;;;;;;;;;;4388222;32;20049;-70
2022/09/07 23:32:30;;;;;;;15.95;5.30;;;;;;;;;;4406474;32;20018;-70
2022/09/07 23:34:56;;;;;;;18.37;5.37;;;;;;;;;;4406685;32;20056;-70
2022/09/07 23:37:21;;;;;;;13.80;5.40;;;;;;;;;;4406892;32;20384;-70
2022/09/07 23:40:01;;;;;;;12.95;5.28;;;;;;;;;;4406211;32;20145;-70
